createdAt,value
2023-02-21T00:00:20.970Z,8.66
2023-02-21T00:03:08.646Z,8.70
2023-02-21T00:05:55.184Z,8.85
2023-02-21T00:08:41.904Z,8.89
2023-02-21T00:11:28.720Z,8.82
2023-02-21T00:14:15.026Z,8.72
2023-02-21T00:17:02.151Z,8.71
2023-02-21T00:19:49.335Z,8.74
2023-02-21T00:22:36.359Z,8.68
2023-02-21T00:25:23.232Z,8.73
2023-02-21T00:28:10.149Z,8.73
2023-02-21T00:30:57.441Z,8.71
2023-02-21T00:33:44.790Z,8.68
2023-02-21T00:36:36.254Z,8.75
2023-02-21T00:39:23.636Z,8.74
2023-02-21T00:42:10.865Z,8.78
2023-02-21T00:44:57.391Z,8.77
2023-02-21T00:47:44.922Z,8.77
2023-02-21T00:50:32.794Z,8.70
2023-02-21T00:53:19.660Z,8.68
2023-02-21T00:56:06.669Z,8.60
2023-02-21T00:58:53.074Z,8.63
2023-02-21T01:01:40.406Z,8.56
2023-02-21T01:04:27.528Z,8.47
2023-02-21T01:07:14.307Z,8.29
2023-02-21T01:10:01.248Z,8.13
2023-02-21T01:12:48.112Z,8.14
2023-02-21T01:15:34.892Z,8.15
2023-02-21T01:18:21.823Z,8.16
2023-02-21T01:21:08.993Z,8.07
2023-02-21T01:23:55.493Z,7.99
2023-02-21T01:26:42.291Z,7.93
2023-02-21T01:29:29.858Z,7.90
2023-02-21T01:32:15.992Z,7.93
2023-02-21T01:35:02.965Z,7.89
2023-02-21T01:37:49.947Z,7.76
2023-02-21T01:40:35.864Z,7.63
2023-02-21T01:43:24.701Z,7.61
2023-02-21T01:46:11.622Z,7.69
2023-02-21T01:48:57.567Z,7.61
2023-02-21T01:51:46.233Z,7.68
2023-02-21T01:54:32.548Z,7.68
2023-02-21T01:57:20.014Z,7.64
2023-02-21T02:00:05.923Z,7.57
2023-02-21T02:02:59.920Z,7.55
2023-02-21T02:05:53.195Z,7.59
2023-02-21T02:08:40.546Z,7.63
2023-02-21T02:11:40.592Z,7.62
2023-02-21T02:14:29.978Z,7.67
2023-02-21T02:17:03.820Z,7.68
2023-02-21T02:20:05.206Z,7.77
2023-02-21T02:22:40.232Z,7.80
2023-02-21T02:25:20.185Z,7.87
2023-02-21T02:28:09.861Z,7.89
2023-02-21T02:30:52.237Z,7.88
2023-02-21T02:33:41.753Z,7.89
2023-02-21T02:36:47.852Z,7.73
2023-02-21T02:39:21.484Z,7.68
2023-02-21T02:42:07.915Z,7.55
2023-02-21T02:44:35.312Z,7.37
2023-02-21T02:47:03.579Z,7.25
2023-02-21T02:49:35.274Z,7.09
2023-02-21T02:52:09.147Z,7.05
2023-02-21T02:54:36.735Z,7.13
2023-02-21T02:57:04.852Z,7.18
2023-02-21T02:59:36.366Z,7.25
2023-02-21T03:02:15.393Z,7.33
2023-02-21T03:05:01.567Z,7.31
2023-02-21T03:08:02.524Z,7.18
2023-02-21T03:10:37.316Z,7.08
2023-02-21T03:13:11.284Z,7.07
2023-02-21T03:15:58.827Z,7.15
2023-02-21T03:19:04.890Z,7.17
2023-02-21T03:21:35.695Z,7.17
2023-02-21T03:24:03.687Z,7.15
2023-02-21T03:26:35.286Z,7.16
2023-02-21T03:29:03.335Z,7.13
2023-02-21T03:31:36.222Z,6.95
2023-02-21T03:34:04.971Z,6.82
2023-02-21T03:36:33.073Z,6.71
2023-02-21T03:39:01.830Z,6.49
2023-02-21T03:41:30.158Z,6.33
2023-02-21T03:44:04.574Z,6.26
2023-02-21T03:46:33.401Z,6.25
2023-02-21T03:49:03.711Z,6.27
2023-02-21T03:51:32.866Z,6.35
2023-02-21T03:54:01.570Z,6.37
2023-02-21T03:56:41.177Z,6.44
2023-02-21T03:59:11.431Z,6.53
2023-02-21T04:01:40.911Z,6.48
2023-02-21T04:04:09.313Z,6.32
2023-02-21T04:06:37.808Z,6.23
2023-02-21T04:09:06.922Z,6.12
2023-02-21T04:11:35.493Z,6.09
2023-02-21T04:14:04.670Z,6.01
2023-02-21T04:16:33.478Z,5.97
2023-02-21T04:19:02.551Z,5.89
2023-02-21T04:21:30.564Z,5.92
2023-02-21T04:23:59.382Z,5.94
2023-02-21T04:26:30.060Z,5.79
2023-02-21T04:28:57.946Z,5.71
2023-02-21T04:31:26.933Z,5.76
2023-02-21T04:34:10.556Z,5.85
2023-02-21T04:36:39.446Z,5.91
2023-02-21T04:39:08.294Z,6.00
2023-02-21T04:41:39.932Z,5.99
2023-02-21T04:44:08.765Z,5.94
2023-02-21T04:46:37.518Z,5.89
2023-02-21T04:49:06.263Z,5.85
2023-02-21T04:51:35.095Z,5.85
2023-02-21T04:54:03.621Z,5.85
2023-02-21T04:56:32.773Z,5.88
2023-02-21T04:59:04.847Z,5.85
2023-02-21T05:01:34.425Z,5.87
2023-02-21T05:04:03.205Z,5.78
2023-02-21T05:06:31.713Z,5.68
2023-02-21T05:09:00.136Z,5.59
2023-02-21T05:11:28.929Z,5.48
2023-02-21T05:13:57.794Z,5.43
2023-02-21T05:16:29.929Z,5.38
2023-02-21T05:18:58.151Z,5.37
2023-02-21T05:21:26.383Z,5.41
2023-02-21T05:23:56.343Z,5.34
2023-02-21T05:26:30.009Z,5.20
2023-02-21T05:28:57.726Z,5.16
2023-02-21T05:31:26.932Z,5.14
2023-02-21T05:33:55.334Z,5.18
2023-02-21T05:36:25.811Z,5.30
2023-02-21T05:38:54.706Z,5.31
2023-02-21T05:41:25.711Z,5.33
2023-02-21T05:43:54.634Z,5.33
2023-02-21T05:46:32.687Z,5.33
2023-02-21T05:49:01.975Z,5.24
2023-02-21T05:51:37.221Z,5.14
2023-02-21T05:54:07.474Z,5.10
2023-02-21T05:56:44.824Z,5.06
2023-02-21T05:59:13.405Z,5.04
2023-02-21T06:01:42.151Z,5.09
2023-02-21T06:04:11.803Z,5.22
2023-02-21T06:06:40.551Z,5.17
2023-02-21T06:09:09.229Z,5.13
2023-02-21T06:11:40.463Z,5.11
2023-02-21T06:14:09.396Z,5.11
2023-02-21T06:16:37.688Z,5.18
2023-02-21T06:19:06.147Z,5.18
2023-02-21T06:21:35.778Z,5.25
2023-02-21T06:24:04.318Z,5.29
2023-02-21T06:26:33.226Z,5.38
2023-02-21T06:29:01.399Z,5.50
2023-02-21T06:31:32.809Z,5.54
2023-02-21T06:34:01.490Z,5.52
2023-02-21T06:36:29.968Z,5.54
2023-02-21T06:38:58.743Z,5.56
2023-02-21T06:41:29.353Z,5.53
2023-02-21T06:43:57.796Z,5.46
2023-02-21T06:46:27.810Z,5.42
2023-02-21T06:48:59.537Z,5.40
2023-02-21T06:51:29.966Z,5.43
2023-02-21T06:53:57.920Z,5.45
2023-02-21T06:56:27.010Z,5.46
2023-02-21T06:58:55.424Z,5.51
2023-02-21T07:01:23.931Z,5.49
2023-02-21T07:03:51.788Z,5.49
2023-02-21T07:06:19.971Z,5.52
2023-02-21T07:08:48.795Z,5.53
2023-02-21T07:11:17.015Z,5.57
2023-02-21T07:13:50.795Z,5.60
2023-02-21T07:16:19.557Z,5.64
2023-02-21T07:18:47.651Z,5.70
2023-02-21T07:21:17.449Z,5.80
2023-02-21T07:23:48.568Z,5.89
2023-02-21T07:26:16.837Z,5.94
2023-02-21T07:28:46.206Z,5.96
2023-02-21T07:31:16.141Z,6.07
2023-02-21T07:33:45.785Z,6.11
2023-02-21T07:36:14.141Z,6.12
2023-02-21T07:38:43.082Z,6.20
2023-02-21T07:41:14.169Z,6.27
2023-02-21T07:43:42.909Z,6.30
2023-02-21T07:46:11.716Z,6.39
2023-02-21T07:48:40.093Z,6.47
2023-02-21T07:51:10.037Z,6.57
2023-02-21T07:53:38.571Z,6.66
2023-02-21T07:56:08.058Z,6.74
2023-02-21T07:58:43.643Z,6.92
2023-02-21T08:01:12.781Z,7.05
2023-02-21T08:03:41.989Z,7.05
2023-02-21T08:06:10.656Z,7.13
2023-02-21T08:08:39.343Z,7.20
2023-02-21T08:11:08.283Z,7.21
2023-02-21T08:13:36.082Z,7.22
2023-02-21T08:16:07.844Z,7.32
2023-02-21T08:18:36.929Z,7.47
2023-02-21T08:21:05.354Z,7.58
2023-02-21T08:23:34.107Z,7.61
2023-02-21T08:26:03.512Z,7.69
2023-02-21T08:28:31.863Z,7.79
2023-02-21T08:31:01.248Z,7.89
2023-02-21T08:33:31.661Z,8.11
2023-02-21T08:35:59.518Z,8.20
2023-02-21T08:38:28.212Z,8.20
2023-02-21T08:40:57.843Z,8.31
2023-02-21T08:43:26.511Z,8.27
2023-02-21T08:45:54.988Z,8.34
2023-02-21T08:48:24.613Z,8.43
2023-02-21T08:50:55.383Z,8.50
2023-02-21T08:53:24.821Z,8.63
2023-02-21T08:55:53.925Z,8.70
2023-02-21T08:58:22.917Z,8.81
2023-02-21T09:00:51.705Z,8.84
2023-02-21T09:03:20.667Z,8.95
2023-02-21T09:05:49.927Z,9.03
2023-02-21T09:08:39.310Z,9.13
2023-02-21T09:11:07.801Z,9.30
2023-02-21T09:13:36.307Z,9.38
2023-02-21T09:16:06.336Z,9.62
2023-02-21T09:18:35.222Z,9.77
2023-02-21T09:21:04.217Z,9.86
2023-02-21T09:23:33.654Z,9.98
2023-02-21T09:26:01.686Z,10.12
2023-02-21T09:28:31.679Z,10.24
2023-02-21T09:31:00.183Z,10.31
2023-02-21T09:33:28.825Z,10.34
2023-02-21T09:35:57.372Z,10.45
2023-02-21T09:38:26.615Z,10.65
2023-02-21T09:40:59.986Z,10.83
2023-02-21T09:43:38.225Z,11.00
2023-02-21T09:46:09.833Z,11.11
2023-02-21T09:48:40.495Z,11.09
2023-02-21T09:51:07.990Z,11.13
2023-02-21T09:53:44.653Z,11.29
2023-02-21T09:56:19.565Z,11.28
2023-02-21T09:58:48.355Z,11.36
2023-02-21T10:01:41.061Z,11.52
2023-02-21T10:04:29.690Z,11.69
2023-02-21T10:07:15.943Z,11.92
2023-02-21T10:09:56.658Z,12.07
2023-02-21T10:12:37.078Z,12.08
2023-02-21T10:15:23.203Z,12.02
2023-02-21T10:18:02.259Z,12.16
2023-02-21T10:20:38.057Z,12.35
2023-02-21T10:23:13.706Z,12.42
2023-02-21T10:25:40.913Z,12.58
2023-02-21T10:28:09.472Z,12.80
2023-02-21T10:30:38.148Z,12.87
2023-02-21T10:33:09.054Z,12.80
2023-02-21T10:35:41.009Z,12.99
2023-02-21T10:38:32.072Z,13.17
2023-02-21T10:41:00.390Z,13.21
2023-02-21T10:43:38.011Z,13.30
2023-02-21T10:46:23.036Z,13.42
2023-02-21T10:48:54.203Z,13.39
2023-02-21T10:51:36.673Z,13.50
2023-02-21T10:54:19.696Z,13.73
2023-02-21T10:56:48.037Z,13.83
2023-02-21T10:59:23.283Z,13.94
2023-02-21T11:01:51.351Z,14.19
2023-02-21T11:04:21.263Z,14.49
2023-02-21T11:07:12.113Z,14.57
2023-02-21T11:09:48.242Z,14.64
2023-02-21T11:12:30.032Z,14.74
2023-02-21T11:15:15.901Z,14.83
2023-02-21T11:17:51.910Z,14.94
2023-02-21T11:20:21.152Z,15.06
2023-02-21T11:22:48.945Z,15.18
2023-02-21T11:25:32.381Z,15.19
2023-02-21T11:28:02.799Z,15.25
2023-02-21T11:30:30.771Z,15.30
2023-02-21T11:33:01.338Z,15.29
2023-02-21T11:35:30.401Z,15.13
2023-02-21T11:37:58.324Z,15.12
2023-02-21T11:40:49.905Z,15.14
2023-02-21T11:43:50.931Z,15.28
2023-02-21T11:46:22.169Z,15.37
2023-02-21T11:49:24.648Z,15.55
2023-02-21T11:52:14.929Z,15.73
2023-02-21T11:54:44.123Z,15.95
2023-02-21T11:57:20.066Z,16.18
2023-02-21T11:59:56.850Z,16.34
2023-02-21T12:02:26.447Z,16.43
2023-02-21T12:05:11.877Z,16.59
2023-02-21T12:08:05.871Z,16.76
2023-02-21T12:10:38.734Z,16.92
2023-02-21T12:13:08.582Z,17.14
2023-02-21T12:15:47.755Z,17.31
2023-02-21T12:18:41.032Z,17.59
2023-02-21T12:21:14.304Z,17.83
2023-02-21T12:23:48.302Z,18.01
2023-02-21T12:26:22.592Z,18.37
2023-02-21T12:28:50.440Z,18.82
2023-02-21T12:31:45.217Z,18.69
2023-02-21T12:34:41.350Z,18.61
2023-02-21T12:37:27.197Z,18.56
2023-02-21T12:40:29.636Z,18.75
2023-02-21T12:43:05.876Z,19.14
2023-02-21T12:45:42.859Z,19.41
2023-02-21T12:48:20.834Z,19.69
2023-02-21T12:50:51.017Z,19.82
2023-02-21T12:53:26.077Z,20.10
2023-02-21T12:56:06.932Z,20.44
2023-02-21T12:58:43.074Z,20.71
2023-02-21T13:01:32.362Z,20.62
2023-02-21T13:04:14.134Z,20.68
2023-02-21T13:06:56.285Z,20.99
2023-02-21T13:10:03.683Z,21.12
2023-02-21T13:12:40.330Z,21.06
2023-02-21T13:15:16.494Z,20.92
2023-02-21T13:17:47.496Z,20.93
2023-02-21T13:20:18.103Z,21.28
2023-02-21T13:23:03.769Z,21.51
2023-02-21T13:25:54.093Z,21.49
2023-02-21T13:28:23.566Z,21.59
2023-02-21T13:30:58.626Z,21.99
2023-02-21T13:33:45.131Z,22.39
2023-02-21T13:36:40.050Z,22.83
2023-02-21T13:39:10.272Z,22.89
2023-02-21T13:41:50.448Z,22.96
2023-02-21T13:44:24.577Z,22.80
2023-02-21T13:46:51.898Z,22.70
2023-02-21T13:49:43.098Z,23.00
2023-02-21T13:52:24.889Z,23.03
2023-02-21T13:55:16.850Z,22.43
2023-02-21T13:58:00.022Z,21.71
2023-02-21T14:00:29.986Z,21.39
2023-02-21T14:03:12.701Z,21.00
2023-02-21T14:05:46.045Z,20.71
2023-02-21T14:08:32.488Z,20.64
2023-02-21T14:11:00.544Z,20.59
2023-02-21T14:13:57.751Z,20.38
2023-02-21T14:16:53.356Z,20.38
2023-02-21T14:19:26.091Z,20.42
2023-02-21T14:22:15.953Z,20.19
2023-02-21T14:24:44.772Z,19.83
2023-02-21T14:27:11.783Z,19.68
2023-02-21T14:29:43.793Z,19.76
2023-02-21T14:32:10.857Z,19.89
2023-02-21T14:34:56.049Z,19.93
2023-02-21T14:38:02.786Z,19.69
2023-02-21T14:40:32.713Z,19.53
2023-02-21T14:43:05.411Z,19.47
2023-02-21T14:45:51.817Z,19.26
2023-02-21T14:48:40.764Z,19.23
2023-02-21T14:51:29.919Z,19.03
2023-02-21T14:54:37.379Z,18.85
2023-02-21T14:57:16.613Z,18.64
2023-02-21T15:00:01.633Z,18.47
2023-02-21T15:02:47.384Z,18.37
2023-02-21T15:05:20.007Z,18.33
2023-02-21T15:07:46.922Z,18.30
2023-02-21T15:10:18.861Z,18.16
2023-02-21T15:12:52.954Z,18.12
2023-02-21T15:15:39.438Z,18.08
2023-02-21T15:18:13.729Z,17.94
2023-02-21T15:20:41.597Z,17.85
2023-02-21T15:23:29.749Z,17.77
2023-02-21T15:25:58.940Z,17.67
2023-02-21T15:28:30.843Z,17.53
2023-02-21T15:31:05.260Z,17.45
2023-02-21T15:33:37.035Z,17.39
2023-02-21T15:36:27.611Z,17.34
2023-02-21T15:38:59.759Z,17.31
2023-02-21T15:41:35.630Z,17.16
2023-02-21T15:44:05.273Z,16.91
2023-02-21T15:46:54.157Z,16.80
2023-02-21T15:49:23.735Z,16.56
2023-02-21T15:52:13.844Z,16.42
2023-02-21T15:54:41.903Z,16.29
2023-02-21T15:57:12.301Z,16.22
2023-02-21T15:59:40.314Z,16.13
2023-02-21T16:02:16.045Z,15.99
2023-02-21T16:05:07.205Z,15.90
2023-02-21T16:07:37.220Z,15.89
2023-02-21T16:10:09.721Z,15.74
2023-02-21T16:12:43.753Z,15.64
2023-02-21T16:15:13.704Z,15.61
2023-02-21T16:17:41.119Z,15.53
2023-02-21T16:20:18.747Z,15.50
2023-02-21T16:23:06.773Z,15.41
2023-02-21T16:25:35.699Z,15.35
2023-02-21T16:28:03.343Z,15.28
2023-02-21T16:30:31.227Z,15.13
2023-02-21T16:33:05.144Z,15.09
2023-02-21T16:35:32.607Z,15.02
2023-02-21T16:38:01.242Z,14.98
2023-02-21T16:40:30.808Z,14.93
2023-02-21T16:43:01.493Z,14.81
2023-02-21T16:45:30.166Z,14.80
2023-02-21T16:48:02.899Z,14.75
2023-02-21T16:50:29.924Z,14.73
2023-02-21T16:52:57.493Z,14.69
2023-02-21T16:55:25.668Z,14.64
2023-02-21T16:57:56.149Z,14.59
2023-02-21T17:00:25.114Z,14.56
2023-02-21T17:02:52.762Z,14.53
2023-02-21T17:05:25.216Z,14.52
2023-02-21T17:07:57.522Z,14.52
2023-02-21T17:10:25.138Z,14.50
2023-02-21T17:12:53.115Z,14.48
2023-02-21T17:15:21.793Z,14.45
2023-02-21T17:17:53.437Z,14.40
2023-02-21T17:20:22.933Z,14.37
2023-02-21T17:22:51.747Z,14.30
2023-02-21T17:25:20.661Z,14.25
2023-02-21T17:27:48.891Z,14.23
2023-02-21T17:30:16.509Z,14.26
2023-02-21T17:32:44.728Z,14.26
2023-02-21T17:35:15.491Z,14.28
2023-02-21T17:37:44.129Z,14.24
2023-02-21T17:40:12.153Z,14.22
2023-02-21T17:42:40.037Z,14.20
2023-02-21T17:45:09.529Z,14.20
2023-02-21T17:47:37.314Z,14.19
2023-02-21T17:50:05.335Z,14.18
2023-02-21T17:52:32.652Z,14.17
2023-02-21T17:55:02.828Z,14.14
2023-02-21T17:57:35.803Z,14.13
2023-02-21T18:00:08.119Z,14.08
2023-02-21T18:02:36.893Z,14.04
2023-02-21T18:05:03.986Z,14.02
2023-02-21T18:07:32.912Z,14.03
2023-02-21T18:10:04.508Z,14.03
2023-02-21T18:12:33.910Z,14.01
2023-02-21T18:15:02.102Z,14.00
2023-02-21T18:17:29.639Z,14.00
2023-02-21T18:19:57.639Z,13.97
2023-02-21T18:22:25.655Z,14.00
2023-02-21T18:24:53.379Z,13.97
2023-02-21T18:27:21.369Z,13.95
2023-02-21T18:29:50.639Z,13.93
2023-02-21T18:32:18.764Z,13.90
2023-02-21T18:34:46.848Z,13.87
2023-02-21T18:37:14.442Z,13.88
2023-02-21T18:39:42.493Z,13.82
2023-02-21T18:42:10.019Z,13.81
2023-02-21T18:44:38.084Z,13.80
2023-02-21T18:47:06.662Z,13.76
2023-02-21T18:49:38.686Z,13.82
2023-02-21T18:52:07.362Z,13.80
2023-02-21T18:54:35.554Z,13.77
2023-02-21T18:57:03.319Z,13.71
2023-02-21T18:59:30.925Z,13.62
2023-02-21T19:01:58.828Z,13.59
2023-02-21T19:04:26.740Z,13.59
2023-02-21T19:06:54.650Z,13.63
2023-02-21T19:09:22.222Z,13.63
2023-02-21T19:11:50.522Z,13.60
2023-02-21T19:14:18.622Z,13.58
2023-02-21T19:16:46.575Z,13.57
2023-02-21T19:19:14.957Z,13.55
2023-02-21T19:21:42.642Z,13.54
2023-02-21T19:24:10.260Z,13.52
2023-02-21T19:26:38.034Z,13.45
2023-02-21T19:29:06.013Z,13.40
2023-02-21T19:31:34.551Z,13.35
2023-02-21T19:34:02.735Z,13.36
2023-02-21T19:36:31.178Z,13.35
2023-02-21T19:38:59.094Z,13.37
2023-02-21T19:41:46.306Z,13.37
2023-02-21T19:44:13.918Z,13.40
2023-02-21T19:46:41.547Z,13.39
2023-02-21T19:49:29.990Z,13.37
2023-02-21T19:51:59.108Z,13.34
2023-02-21T19:54:31.173Z,13.40
2023-02-21T19:56:59.224Z,13.38
2023-02-21T19:59:29.748Z,13.36
2023-02-21T20:01:59.796Z,13.41
2023-02-21T20:04:28.845Z,13.37
2023-02-21T20:06:59.479Z,13.38
2023-02-21T20:09:26.685Z,13.37
2023-02-21T20:11:54.380Z,13.37
2023-02-21T20:14:22.006Z,13.42
2023-02-21T20:16:49.886Z,13.43
2023-02-21T20:19:17.860Z,13.38
2023-02-21T20:21:46.035Z,13.37
2023-02-21T20:24:14.011Z,13.37
2023-02-21T20:26:41.983Z,13.39
2023-02-21T20:29:10.143Z,13.38
2023-02-21T20:31:38.792Z,13.43
2023-02-21T20:34:07.049Z,13.46
2023-02-21T20:36:36.570Z,13.46
2023-02-21T20:39:04.710Z,13.43
2023-02-21T20:41:32.822Z,13.43
2023-02-21T20:44:03.881Z,13.43
2023-02-21T20:46:34.015Z,13.38
2023-02-21T20:49:02.124Z,13.36
2023-02-21T20:51:33.267Z,13.33
2023-02-21T20:54:04.814Z,13.37
2023-02-21T20:56:36.089Z,13.36
2023-02-21T20:59:05.010Z,13.37
2023-02-21T21:01:32.931Z,13.35
2023-02-21T21:04:08.914Z,13.39
2023-02-21T21:06:37.323Z,13.40
2023-02-21T21:09:05.929Z,13.34
2023-02-21T21:11:35.020Z,13.32
2023-02-21T21:14:03.036Z,13.33
2023-02-21T21:16:31.870Z,13.32
2023-02-21T21:18:59.698Z,13.31
2023-02-21T21:21:32.005Z,13.32
2023-02-21T21:24:00.596Z,13.34
2023-02-21T21:26:28.608Z,13.28
2023-02-21T21:28:56.449Z,13.25
2023-02-21T21:31:24.708Z,13.18
2023-02-21T21:33:52.936Z,13.21
2023-02-21T21:36:21.131Z,13.18
2023-02-21T21:38:49.064Z,13.14
2023-02-21T21:41:17.329Z,13.09
2023-02-21T21:43:45.121Z,13.13
2023-02-21T21:46:13.118Z,13.11
2023-02-21T21:48:45.469Z,13.18
2023-02-21T21:51:14.393Z,13.17
2023-02-21T21:53:42.656Z,13.14
2023-02-21T21:56:11.428Z,13.14
2023-02-21T21:58:39.448Z,13.14
2023-02-21T22:01:07.862Z,13.13
2023-02-21T22:03:36.112Z,13.17
2023-02-21T22:06:04.941Z,13.15
2023-02-21T22:08:32.679Z,13.12
2023-02-21T22:11:00.318Z,13.13
2023-02-21T22:13:33.896Z,13.09
2023-02-21T22:16:01.928Z,13.11
2023-02-21T22:18:29.975Z,13.09
2023-02-21T22:20:59.205Z,13.07
2023-02-21T22:23:27.223Z,13.10
2023-02-21T22:25:57.268Z,13.10
2023-02-21T22:28:25.217Z,13.11
2023-02-21T22:30:53.551Z,13.01
2023-02-21T22:33:22.516Z,13.06
2023-02-21T22:35:50.098Z,13.09
2023-02-21T22:38:17.955Z,13.08
2023-02-21T22:40:46.329Z,13.05
2023-02-21T22:43:14.056Z,13.04
2023-02-21T22:45:49.730Z,13.12
2023-02-21T22:48:20.415Z,13.09
2023-02-21T22:50:47.887Z,13.06
2023-02-21T22:53:15.197Z,13.04
2023-02-21T22:55:43.997Z,13.06
2023-02-21T22:58:11.646Z,13.02
2023-02-21T23:00:39.498Z,13.01
2023-02-21T23:03:14.490Z,12.98
2023-02-21T23:06:06.994Z,12.98
2023-02-21T23:08:37.621Z,12.98
2023-02-21T23:11:06.596Z,12.96
2023-02-21T23:13:38.076Z,12.94
2023-02-21T23:16:06.913Z,12.94
2023-02-21T23:18:34.486Z,12.94
2023-02-21T23:21:04.662Z,12.96
2023-02-21T23:23:32.682Z,13.00
2023-02-21T23:26:00.776Z,13.02
2023-02-21T23:28:31.108Z,13.04
2023-02-21T23:31:02.097Z,13.05
2023-02-21T23:33:34.070Z,13.04
2023-02-21T23:36:04.773Z,13.01
2023-02-21T23:38:38.283Z,13.05
2023-02-21T23:41:09.678Z,13.01
2023-02-21T23:43:37.450Z,13.01
2023-02-21T23:46:07.142Z,13.02
2023-02-21T23:48:35.615Z,13.01
2023-02-21T23:51:03.856Z,13.02
2023-02-21T23:53:31.978Z,13.02
2023-02-21T23:56:01.047Z,12.99
2023-02-21T23:58:29.485Z,13.04
